createdAt,value
2018-04-24T00:01:10.540Z,13.80
2018-04-24T00:03:38.067Z,13.80
2018-04-24T00:06:05.581Z,13.70
2018-04-24T00:08:33.104Z,13.80
2018-04-24T00:11:00.620Z,13.60
2018-04-24T00:13:28.150Z,13.60
2018-04-24T00:15:56.428Z,13.70
2018-04-24T00:18:23.984Z,13.70
2018-04-24T00:20:52.266Z,13.60
2018-04-24T00:23:20.546Z,13.70
2018-04-24T00:25:48.848Z,13.60
2018-04-24T00:28:16.367Z,13.60
2018-04-24T00:30:43.896Z,13.50
2018-04-24T00:33:11.409Z,13.40
2018-04-24T00:35:39.728Z,13.30
2018-04-24T00:38:07.238Z,13.30
2018-04-24T00:40:34.726Z,13.30
2018-04-24T00:43:03.030Z,13.40
2018-04-24T00:45:30.603Z,13.30
2018-04-24T00:47:58.152Z,13.30
2018-04-24T00:50:25.705Z,13.20
2018-04-24T00:52:53.228Z,13.20
2018-04-24T00:55:20.749Z,13.20
2018-04-24T01:00:25.487Z,13.20
2018-04-24T01:02:53.767Z,13.10
2018-04-24T01:05:22.059Z,13.10
2018-04-24T01:07:49.587Z,13.10
2018-04-24T01:10:17.132Z,13.10
2018-04-24T01:12:44.642Z,13.10
2018-04-24T01:15:12.913Z,13.20
2018-04-24T01:17:41.197Z,13.10
2018-04-24T01:20:09.475Z,13.10
2018-04-24T01:22:37.783Z,13.10
2018-04-24T01:25:05.308Z,13.10
2018-04-24T01:27:32.839Z,13.10
2018-04-24T01:30:00.339Z,13.20
2018-04-24T01:32:27.859Z,13.10
2018-04-24T01:34:55.399Z,13.10
2018-04-24T01:37:22.920Z,13.00
2018-04-24T01:39:50.439Z,13.00
2018-04-24T01:42:17.949Z,13.10
2018-04-24T01:44:45.559Z,13.10
2018-04-24T01:47:13.076Z,13.10
2018-04-24T01:49:40.626Z,13.20
2018-04-24T01:52:08.132Z,13.20
2018-04-24T01:54:36.404Z,13.20
2018-04-24T01:57:04.710Z,13.20
2018-04-24T01:59:32.278Z,13.10
2018-04-24T02:01:59.794Z,13.20
2018-04-24T02:04:28.088Z,13.20
2018-04-24T02:06:56.379Z,13.20
2018-04-24T02:09:24.664Z,13.30
2018-04-24T02:11:52.971Z,13.30
2018-04-24T02:14:20.488Z,13.30
2018-04-24T02:16:48.765Z,13.20
2018-04-24T02:19:17.786Z,13.20
2018-04-24T02:21:46.071Z,13.20
2018-04-24T02:24:14.363Z,13.30
2018-04-24T02:26:41.885Z,13.30
2018-04-24T02:29:09.411Z,13.30
2018-04-24T02:31:36.917Z,13.30
2018-04-24T02:34:04.447Z,13.20
2018-04-24T02:36:31.970Z,13.20
2018-04-24T02:39:00.241Z,13.10
2018-04-24T02:41:28.518Z,13.00
2018-04-24T02:43:56.796Z,13.10
2018-04-24T02:46:25.092Z,13.10
2018-04-24T02:48:53.390Z,13.20
2018-04-24T02:51:20.917Z,13.20
2018-04-24T02:53:48.428Z,13.30
2018-04-24T02:56:15.948Z,13.30
2018-04-24T02:58:44.246Z,13.30
2018-04-24T03:01:12.555Z,13.30
2018-04-24T03:03:40.079Z,13.30
2018-04-24T03:06:08.415Z,13.20
2018-04-24T03:08:35.955Z,13.20
2018-04-24T03:11:03.469Z,13.10
2018-04-24T03:13:30.976Z,13.10
2018-04-24T03:15:58.492Z,12.90
2018-04-24T03:18:26.006Z,12.90
2018-04-24T03:20:53.532Z,12.80
2018-04-24T03:23:21.819Z,12.90
2018-04-24T03:25:50.120Z,12.90
2018-04-24T03:28:17.624Z,12.80
2018-04-24T03:30:45.165Z,12.90
2018-04-24T03:33:12.688Z,12.90
2018-04-24T03:35:40.204Z,12.80
2018-04-24T03:38:07.753Z,12.90
2018-04-24T03:40:35.316Z,12.80
2018-04-24T03:43:02.844Z,12.80
2018-04-24T03:45:30.363Z,12.80
2018-04-24T03:47:57.896Z,12.90
2018-04-24T03:50:25.429Z,12.80
2018-04-24T03:52:52.944Z,12.80
2018-04-24T03:55:20.474Z,12.80
2018-04-24T03:57:48.744Z,12.80
2018-04-24T04:00:17.036Z,12.70
2018-04-24T04:02:45.346Z,12.70
2018-04-24T04:05:12.938Z,12.70
2018-04-24T04:07:40.515Z,12.70
2018-04-24T04:10:08.012Z,12.70
2018-04-24T04:12:36.287Z,12.70
2018-04-24T04:15:04.564Z,12.70
2018-04-24T04:17:43.755Z,12.70
2018-04-24T04:20:23.122Z,12.70
2018-04-24T04:23:02.684Z,12.70
2018-04-24T04:25:31.185Z,12.70
2018-04-24T04:27:59.101Z,12.70
2018-04-24T04:30:27.401Z,12.80
2018-04-24T04:32:55.698Z,12.80
2018-04-24T04:35:24.003Z,12.80
2018-04-24T04:37:52.129Z,12.80
2018-04-24T04:40:19.632Z,12.90
2018-04-24T04:42:47.156Z,12.80
2018-04-24T04:45:14.676Z,12.80
2018-04-24T04:47:42.206Z,12.80
2018-04-24T04:50:10.497Z,12.80
2018-04-24T04:52:38.771Z,12.80
2018-04-24T04:55:07.187Z,12.70
2018-04-24T04:57:34.697Z,12.70
2018-04-24T05:00:02.227Z,12.70
2018-04-24T05:02:29.771Z,12.60
2018-04-24T05:04:57.301Z,12.60
2018-04-24T05:07:25.610Z,12.60
2018-04-24T05:09:53.182Z,12.60
2018-04-24T05:12:20.713Z,12.60
2018-04-24T05:14:48.990Z,12.60
2018-04-24T05:17:17.304Z,12.60
2018-04-24T05:19:44.822Z,12.60
2018-04-24T05:22:12.352Z,12.60
2018-04-24T05:24:39.895Z,12.60
2018-04-24T05:27:07.410Z,12.60
2018-04-24T05:29:35.710Z,12.50
2018-04-24T05:32:03.214Z,12.50
2018-04-24T05:34:30.742Z,12.50
2018-04-24T05:36:59.008Z,12.40
2018-04-24T05:39:26.551Z,12.30
2018-04-24T05:41:54.060Z,12.40
2018-04-24T05:44:21.571Z,12.40
2018-04-24T05:46:49.097Z,12.40
2018-04-24T05:49:16.612Z,12.40
2018-04-24T05:51:44.148Z,12.40
2018-04-24T05:54:11.679Z,12.50
2018-04-24T05:56:39.967Z,12.40
2018-04-24T05:59:07.485Z,12.40
2018-04-24T06:01:35.018Z,12.50
2018-04-24T06:04:02.534Z,12.50
2018-04-24T06:06:30.066Z,12.40
2018-04-24T06:08:57.616Z,12.50
2018-04-24T06:11:25.130Z,12.50
2018-04-24T06:13:53.420Z,12.50
2018-04-24T06:16:21.718Z,12.50
2018-04-24T06:18:50.021Z,12.60
2018-04-24T06:21:17.551Z,12.50
2018-04-24T06:23:45.838Z,12.70
2018-04-24T06:26:13.380Z,12.60
2018-04-24T06:28:41.695Z,12.70
2018-04-24T06:31:09.977Z,12.70
2018-04-24T06:33:37.514Z,12.70
2018-04-24T06:36:05.841Z,12.90
2018-04-24T06:38:33.357Z,12.90
2018-04-24T06:41:01.647Z,13.00
2018-04-24T06:43:29.954Z,13.00
2018-04-24T06:45:57.491Z,13.00
2018-04-24T06:48:25.785Z,13.10
2018-04-24T06:50:53.303Z,13.10
2018-04-24T06:53:20.813Z,13.10
2018-04-24T06:55:48.348Z,13.20
2018-04-24T06:58:15.884Z,13.30
2018-04-24T07:00:43.503Z,13.40
2018-04-24T07:03:10.982Z,13.60
2018-04-24T07:05:38.502Z,13.70
2018-04-24T07:08:06.805Z,14.10
2018-04-24T07:10:34.321Z,14.00
2018-04-24T07:13:01.882Z,14.10
2018-04-24T07:15:29.398Z,14.30
2018-04-24T07:17:56.981Z,14.40
2018-04-24T07:20:24.508Z,14.50
2018-04-24T07:22:52.781Z,15.10
2018-04-24T07:25:20.312Z,15.10
2018-04-24T07:27:47.830Z,15.30
2018-04-24T07:30:16.134Z,15.60
2018-04-24T07:32:43.658Z,15.60
2018-04-24T07:35:11.952Z,15.80
2018-04-24T07:37:40.236Z,15.90
2018-04-24T07:40:08.533Z,15.90
2018-04-24T07:42:36.057Z,15.90
2018-04-24T07:45:03.581Z,16.10
2018-04-24T07:47:31.116Z,16.20
2018-04-24T07:49:58.631Z,16.30
2018-04-24T07:52:26.155Z,16.40
2018-04-24T07:54:53.678Z,16.70
2018-04-24T07:57:21.224Z,16.80
2018-04-24T07:59:48.726Z,16.80
2018-04-24T08:02:17.002Z,17.20
2018-04-24T08:04:45.292Z,17.10
2018-04-24T08:07:13.559Z,17.10
2018-04-24T08:09:41.852Z,17.10
2018-04-24T08:12:10.150Z,17.20
2018-04-24T08:14:37.674Z,17.20
2018-04-24T08:17:05.183Z,17.10
2018-04-24T08:19:32.706Z,17.10
2018-04-24T08:22:01.016Z,17.30
2018-04-24T08:24:28.539Z,17.30
2018-04-24T08:26:56.843Z,18.00
2018-04-24T08:29:25.123Z,18.10
2018-04-24T08:31:53.416Z,18.10
2018-04-24T08:34:21.679Z,18.30
2018-04-24T08:36:49.986Z,17.90
2018-04-24T08:39:18.285Z,17.70
2018-04-24T08:41:45.796Z,17.60
2018-04-24T08:44:13.347Z,17.90
2018-04-24T08:46:40.857Z,18.40
2018-04-24T08:49:08.404Z,18.70
2018-04-24T08:51:35.937Z,19.00
2018-04-24T08:54:03.461Z,18.60
2018-04-24T08:56:31.163Z,17.90
2018-04-24T08:58:58.531Z,18.00
2018-04-24T09:01:26.061Z,18.30
2018-04-24T09:03:53.583Z,18.40
2018-04-24T09:06:21.890Z,18.80
2018-04-24T09:08:49.410Z,18.80
2018-04-24T09:11:16.917Z,18.60
2018-04-24T09:13:44.456Z,18.80
2018-04-24T09:16:12.733Z,19.00
2018-04-24T09:18:41.036Z,18.90
2018-04-24T09:21:08.554Z,18.90
2018-04-24T09:23:36.103Z,19.10
2018-04-24T09:26:03.637Z,19.40
2018-04-24T09:28:31.149Z,19.50
2018-04-24T09:30:58.678Z,19.60
2018-04-24T09:33:26.278Z,19.50
2018-04-24T09:35:53.745Z,19.10
2018-04-24T09:38:21.263Z,18.80
2018-04-24T09:40:48.798Z,18.60
2018-04-24T09:43:17.075Z,18.80
2018-04-24T09:45:45.385Z,19.30
2018-04-24T09:48:12.931Z,19.20
2018-04-24T09:50:40.467Z,19.70
2018-04-24T09:53:08.775Z,19.60
2018-04-24T09:55:37.050Z,19.30
2018-04-24T09:58:05.351Z,19.20
2018-04-24T10:00:36.646Z,19.20
2018-04-24T10:03:04.163Z,19.00
2018-04-24T10:05:31.686Z,18.90
2018-04-24T10:07:59.197Z,19.40
2018-04-24T10:10:26.745Z,19.90
2018-04-24T10:12:54.270Z,20.30
2018-04-24T10:15:21.799Z,20.40
2018-04-24T10:17:49.307Z,20.40
2018-04-24T10:20:16.837Z,20.30
2018-04-24T10:22:44.361Z,20.10
2018-04-24T10:25:12.674Z,20.50
2018-04-24T10:27:40.185Z,20.50
2018-04-24T10:30:08.476Z,20.80
2018-04-24T10:32:36.759Z,20.90
2018-04-24T10:35:05.058Z,21.10
2018-04-24T10:37:32.615Z,21.10
2018-04-24T10:40:00.104Z,21.00
2018-04-24T10:42:27.624Z,21.10
2018-04-24T10:44:55.898Z,21.00
2018-04-24T10:47:23.431Z,21.00
2018-04-24T10:49:50.950Z,20.90
2018-04-24T10:52:19.246Z,21.20
2018-04-24T10:54:46.837Z,21.10
2018-04-24T10:57:14.350Z,21.20
2018-04-24T10:59:42.641Z,21.60
2018-04-24T11:02:10.165Z,21.50
2018-04-24T11:04:37.720Z,22.00
2018-04-24T11:07:05.229Z,21.90
2018-04-24T11:09:33.498Z,22.00
2018-04-24T11:12:01.789Z,22.00
2018-04-24T11:14:30.061Z,21.80
2018-04-24T11:16:58.356Z,22.00
2018-04-24T11:19:26.638Z,22.30
2018-04-24T11:21:54.176Z,22.30
2018-04-24T11:24:21.704Z,22.50
2018-04-24T11:26:49.277Z,22.50
2018-04-24T11:29:16.778Z,22.60
2018-04-24T11:31:45.056Z,22.60
2018-04-24T11:34:13.353Z,22.80
2018-04-24T11:36:40.949Z,22.80
2018-04-24T11:39:09.196Z,22.00
2018-04-24T11:41:38.450Z,21.80
2018-04-24T11:44:05.957Z,21.80
2018-04-24T11:46:34.261Z,21.30
2018-04-24T11:49:01.780Z,21.20
2018-04-24T11:51:29.304Z,21.60
2018-04-24T11:53:56.809Z,21.70
2018-04-24T11:56:24.459Z,21.60
2018-04-24T11:58:51.973Z,21.70
2018-04-24T12:01:26.208Z,21.50
2018-04-24T12:03:53.738Z,21.90
2018-04-24T12:06:22.013Z,22.20
2018-04-24T12:08:50.328Z,22.20
2018-04-24T12:11:17.843Z,22.20
2018-04-24T12:13:45.380Z,22.30
2018-04-24T12:16:12.891Z,22.60
2018-04-24T12:18:41.205Z,22.30
2018-04-24T12:21:08.727Z,22.30
2018-04-24T12:23:37.005Z,22.90
2018-04-24T12:26:04.533Z,22.90
2018-04-24T12:28:32.053Z,22.40
2018-04-24T12:30:59.605Z,22.70
2018-04-24T12:33:27.895Z,23.10
2018-04-24T12:35:56.230Z,23.00
2018-04-24T12:38:23.757Z,23.00
2018-04-24T12:40:51.286Z,23.30
2018-04-24T12:43:18.821Z,23.40
2018-04-24T12:45:46.348Z,23.50
2018-04-24T12:48:13.894Z,23.30
2018-04-24T12:50:42.179Z,22.90
2018-04-24T12:53:10.484Z,22.80
2018-04-24T12:55:37.997Z,22.70
2018-04-24T12:58:05.541Z,22.80
2018-04-24T13:00:33.058Z,22.50
2018-04-24T13:03:00.575Z,22.40
2018-04-24T13:05:28.145Z,22.40
2018-04-24T13:07:55.661Z,22.30
2018-04-24T13:10:23.184Z,22.50
2018-04-24T13:12:50.729Z,22.40
2018-04-24T13:15:18.245Z,22.60
2018-04-24T13:17:45.774Z,22.70
2018-04-24T13:20:13.281Z,23.00
2018-04-24T13:22:40.784Z,23.00
2018-04-24T13:25:08.325Z,23.10
2018-04-24T13:27:35.843Z,23.20
2018-04-24T13:30:04.136Z,23.00
2018-04-24T13:32:32.390Z,22.90
2018-04-24T13:34:59.951Z,22.90
2018-04-24T13:37:27.460Z,22.90
2018-04-24T13:39:54.974Z,22.80
2018-04-24T13:42:22.514Z,23.00
2018-04-24T13:44:50.046Z,23.10
2018-04-24T13:47:17.555Z,23.10
2018-04-24T13:49:45.080Z,23.30
2018-04-24T13:52:12.623Z,23.40
2018-04-24T13:54:40.928Z,23.50
2018-04-24T13:57:08.458Z,23.40
2018-04-24T13:59:36.754Z,22.90
2018-04-24T14:02:05.057Z,23.00
2018-04-24T14:04:32.648Z,23.00
2018-04-24T14:07:00.178Z,23.00
2018-04-24T14:09:27.718Z,23.10
2018-04-24T14:11:55.997Z,23.30
2018-04-24T14:14:24.287Z,23.30
2018-04-24T14:16:52.600Z,23.30
2018-04-24T14:19:20.870Z,23.30
2018-04-24T14:21:48.507Z,23.20
2018-04-24T14:24:15.945Z,23.30
2018-04-24T14:26:43.481Z,23.30
2018-04-24T14:29:10.999Z,23.30
2018-04-24T14:31:42.477Z,23.30
2018-04-24T14:34:12.845Z,23.20
2018-04-24T14:36:40.505Z,23.30
2018-04-24T14:39:08.037Z,23.40
2018-04-24T14:41:35.554Z,23.40
2018-04-24T14:44:03.895Z,23.10
2018-04-24T14:46:31.408Z,23.10
2018-04-24T14:48:59.711Z,23.20
2018-04-24T14:51:28.009Z,23.30
2018-04-24T14:53:55.523Z,23.20
2018-04-24T14:56:23.048Z,23.40
2018-04-24T14:58:50.556Z,23.30
2018-04-24T15:01:18.105Z,23.30
2018-04-24T15:03:45.656Z,23.10
2018-04-24T15:06:13.168Z,23.20
2018-04-24T15:08:41.464Z,23.00
2018-04-24T15:11:08.984Z,23.00
2018-04-24T15:13:36.534Z,23.00
2018-04-24T15:16:04.048Z,23.00
2018-04-24T15:18:32.343Z,23.10
2018-04-24T15:20:59.883Z,23.10
2018-04-24T15:23:28.201Z,23.10
2018-04-24T15:25:55.724Z,23.10
2018-04-24T15:28:24.021Z,23.00
2018-04-24T15:30:51.561Z,23.00
2018-04-24T15:33:19.083Z,23.00
2018-04-24T15:35:46.615Z,22.80
2018-04-24T15:38:14.135Z,22.60
2018-04-24T15:40:42.452Z,22.60
2018-04-24T15:43:10.747Z,22.60
2018-04-24T15:45:38.268Z,22.60
2018-04-24T15:48:05.847Z,22.60
2018-04-24T15:50:33.328Z,22.50
2018-04-24T15:53:00.860Z,22.40
2018-04-24T15:55:29.879Z,22.30
2018-04-24T15:57:58.175Z,22.40
2018-04-24T16:00:25.699Z,22.30
2018-04-24T16:02:53.249Z,22.40
2018-04-24T16:05:20.764Z,22.40
2018-04-24T16:07:48.303Z,22.40
2018-04-24T16:10:16.597Z,22.30
2018-04-24T16:12:44.872Z,22.30
2018-04-24T16:15:13.180Z,22.30
2018-04-24T16:17:40.745Z,22.30
2018-04-24T16:20:08.259Z,22.30
2018-04-24T16:22:35.795Z,22.20
2018-04-24T16:25:03.327Z,22.20
2018-04-24T16:27:30.858Z,22.10
2018-04-24T16:29:58.473Z,22.10
2018-04-24T16:32:25.999Z,22.10
2018-04-24T16:34:54.289Z,22.20
2018-04-24T16:37:22.600Z,22.20
2018-04-24T16:39:50.118Z,22.20
2018-04-24T16:42:17.658Z,22.30
2018-04-24T16:44:45.175Z,22.30
2018-04-24T16:47:12.703Z,22.50
2018-04-24T16:49:40.234Z,23.00
2018-04-24T16:52:07.761Z,24.40
2018-04-24T16:54:36.067Z,27.50
2018-04-24T16:57:03.590Z,27.50
2018-04-24T16:59:31.926Z,27.10
2018-04-24T17:01:59.440Z,27.10
2018-04-24T17:04:27.721Z,25.70
2018-04-24T17:06:56.019Z,24.90
2018-04-24T17:09:23.533Z,24.90
2018-04-24T17:11:51.059Z,24.10
2018-04-24T17:14:18.625Z,23.60
2018-04-24T17:16:46.195Z,23.40
2018-04-24T17:19:14.569Z,23.10
2018-04-24T17:21:42.093Z,22.90
2018-04-24T17:24:09.633Z,22.70
2018-04-24T17:26:37.151Z,22.50
2018-04-24T17:29:04.682Z,22.30
2018-04-24T17:31:32.228Z,22.20
2018-04-24T17:33:59.826Z,22.10
2018-04-24T17:36:28.173Z,21.90
2018-04-24T17:38:55.730Z,21.90
2018-04-24T17:41:23.587Z,21.80
2018-04-24T17:43:51.183Z,21.70
2018-04-24T17:46:19.483Z,21.60
2018-04-24T17:48:47.808Z,21.50
2018-04-24T17:51:15.331Z,21.50
2018-04-24T17:53:43.665Z,21.40
2018-04-24T17:56:11.713Z,21.30
2018-04-24T17:58:39.300Z,21.20
2018-04-24T18:01:06.865Z,21.10
2018-04-24T18:03:34.463Z,21.00
2018-04-24T18:06:02.204Z,20.80
2018-04-24T18:08:29.759Z,20.70
2018-04-24T18:10:57.346Z,20.60
2018-04-24T18:13:24.949Z,20.50
2018-04-24T18:15:53.338Z,20.30
2018-04-24T18:18:20.981Z,20.30
2018-04-24T18:20:48.572Z,20.20
2018-04-24T18:23:16.436Z,20.10
2018-04-24T18:25:44.737Z,19.90
2018-04-24T18:28:12.345Z,19.90
2018-04-24T18:30:40.807Z,19.80
2018-04-24T18:33:08.437Z,19.70
2018-04-24T18:35:36.780Z,19.50
2018-04-24T18:38:04.417Z,19.50
2018-04-24T18:40:32.065Z,19.20
2018-04-24T18:43:00.351Z,19.10
2018-04-24T18:45:27.954Z,19.10
2018-04-24T18:47:55.708Z,19.00
2018-04-24T18:50:23.486Z,18.90
2018-04-24T18:52:51.259Z,18.70
2018-04-24T18:55:19.124Z,18.50
2018-04-24T18:57:46.987Z,18.30
2018-04-24T19:00:14.873Z,18.10
2018-04-24T19:02:42.878Z,18.00
2018-04-24T19:05:12.449Z,17.90
2018-04-24T19:07:40.317Z,17.90
2018-04-24T19:10:08.196Z,17.90
2018-04-24T19:12:36.133Z,17.80
2018-04-24T19:15:04.757Z,17.50
2018-04-24T19:17:32.622Z,17.50
2018-04-24T19:20:01.382Z,17.30
2018-04-24T19:22:30.104Z,17.20
2018-04-24T19:25:17.671Z,17.10
2018-04-24T19:27:47.100Z,17.00
2018-04-24T19:30:14.911Z,16.90
2018-04-24T19:32:42.829Z,17.00
2018-04-24T19:35:11.250Z,16.90
2018-04-24T19:37:39.069Z,16.80
2018-04-24T19:40:12.872Z,16.80
2018-04-24T19:42:40.454Z,16.70
2018-04-24T19:45:09.004Z,16.60
2018-04-24T19:47:36.761Z,16.50
2018-04-24T19:50:10.143Z,16.40
2018-04-24T19:52:37.804Z,16.30
2018-04-24T19:55:11.038Z,16.30
2018-04-24T19:57:38.677Z,16.30
2018-04-24T20:00:06.324Z,16.10
2018-04-24T20:02:33.930Z,16.10
2018-04-24T20:05:02.498Z,16.10
2018-04-24T20:07:30.129Z,16.10
2018-04-24T20:09:58.710Z,16.10
2018-04-24T20:12:27.109Z,16.00
2018-04-24T20:14:54.678Z,16.00
2018-04-24T20:17:22.369Z,16.00
2018-04-24T20:19:49.918Z,16.00
2018-04-24T20:22:17.445Z,15.90
2018-04-24T20:24:45.004Z,15.90
2018-04-24T20:27:12.542Z,15.90
2018-04-24T20:29:40.107Z,15.90
2018-04-24T20:32:07.645Z,15.80
2018-04-24T20:34:35.176Z,15.80
2018-04-24T20:37:03.476Z,15.70
2018-04-24T20:39:31.047Z,15.70
2018-04-24T20:41:58.579Z,15.70
2018-04-24T20:44:26.918Z,15.60
2018-04-24T20:46:54.484Z,15.60
2018-04-24T20:49:21.990Z,15.60
2018-04-24T20:51:50.292Z,15.50
2018-04-24T20:54:18.610Z,15.50
2018-04-24T20:56:46.147Z,15.50
2018-04-24T20:59:13.708Z,15.20
2018-04-24T21:01:41.236Z,15.00
2018-04-24T21:04:08.783Z,14.90
2018-04-24T21:06:36.301Z,14.90
2018-04-24T21:09:03.884Z,14.90
2018-04-24T21:11:31.405Z,14.90
2018-04-24T21:13:58.920Z,15.00
2018-04-24T21:16:26.458Z,15.00
2018-04-24T21:18:53.992Z,15.00
2018-04-24T21:21:21.535Z,14.90
2018-04-24T21:23:49.054Z,14.80
2018-04-24T21:26:16.623Z,14.80
2018-04-24T21:28:44.185Z,14.60
2018-04-24T21:31:11.701Z,14.50
2018-04-24T21:33:39.238Z,14.40
2018-04-24T21:36:06.761Z,14.50
2018-04-24T21:38:35.083Z,14.60
2018-04-24T21:41:02.608Z,14.50
2018-04-24T21:43:30.927Z,14.60
2018-04-24T21:45:58.439Z,14.60
2018-04-24T21:48:26.721Z,14.50
2018-04-24T21:50:55.011Z,14.50
2018-04-24T21:53:23.288Z,14.40
2018-04-24T21:55:51.594Z,14.40
2018-04-24T21:58:19.106Z,14.40
2018-04-24T22:00:46.622Z,14.40
2018-04-24T22:03:14.148Z,14.40
2018-04-24T22:05:42.437Z,14.40
2018-04-24T22:08:10.730Z,14.30
2018-04-24T22:10:39.010Z,14.10
2018-04-24T22:13:07.296Z,14.10
2018-04-24T22:15:34.811Z,14.10
2018-04-24T22:18:02.333Z,14.10
2018-04-24T22:20:29.844Z,14.10
2018-04-24T22:22:57.361Z,14.10
2018-04-24T22:25:24.889Z,13.90
2018-04-24T22:27:52.417Z,13.80
2018-04-24T22:30:19.927Z,13.80
2018-04-24T22:32:48.210Z,13.90
2018-04-24T22:35:16.481Z,13.80
2018-04-24T22:37:44.015Z,13.80
2018-04-24T22:40:11.533Z,13.80
2018-04-24T22:42:39.066Z,13.70
2018-04-24T22:45:07.337Z,13.60
2018-04-24T22:47:34.870Z,13.60
2018-04-24T22:50:02.380Z,13.50
2018-04-24T22:52:30.659Z,13.50
2018-04-24T22:54:58.247Z,13.50
2018-04-24T22:57:25.777Z,13.50
2018-04-24T22:59:53.303Z,13.50
2018-04-24T23:02:20.831Z,13.60
2018-04-24T23:04:49.132Z,13.60
2018-04-24T23:07:16.641Z,13.60
2018-04-24T23:09:53.796Z,13.60
2018-04-24T23:12:33.215Z,13.50
2018-04-24T23:15:12.584Z,13.40
2018-04-24T23:17:51.936Z,13.30
2018-04-24T23:20:18.986Z,13.30
2018-04-24T23:22:46.517Z,13.30
2018-04-24T23:25:14.034Z,13.20
2018-04-24T23:27:42.340Z,13.10
2018-04-24T23:30:09.850Z,13.00
2018-04-24T23:32:37.382Z,13.00
2018-04-24T23:35:04.889Z,13.00
2018-04-24T23:37:32.412Z,12.90
2018-04-24T23:39:59.927Z,12.80
2018-04-24T23:42:27.452Z,12.80
2018-04-24T23:44:54.979Z,12.70
2018-04-24T23:47:22.520Z,12.70
2018-04-24T23:49:50.805Z,12.70
2018-04-24T23:52:19.121Z,12.80
2018-04-24T23:54:46.723Z,12.80
2018-04-24T23:57:14.187Z,12.80
2018-04-24T23:59:41.707Z,12.80
